Time;durP1;ratioP1;P1;durP2;ratioP2;P2;SDS_P1;SDS_P2;PMS_P1;PMS_P2;Temp;Humidity;BMP_temperature;BMP_pressure;BME280_temperature;BME280_humidity;BME280_pressure;Samples;Min_cycle;Max_cycle;Signal;HPM_P1;HPM_P2
2022/08/26 00:01:54;;;;;;;11.40;8.93;;;;;;;22.33;61.19;96456.63;6245517;23;20089;-78
2022/08/26 00:04:23;;;;;;;15.27;9.15;;;;;;;22.32;61.63;96453.16;6245388;23;20016;-78
2022/08/26 00:06:52;;;;;;;16.25;9.48;;;;;;;22.31;61.47;96456.09;6244564;22;20020;-78
2022/08/26 00:09:20;;;;;;;17.40;8.50;;;;;;;22.28;61.56;96448.63;6245348;23;20066;-78
2022/08/26 00:11:49;;;;;;;12.90;8.25;;;;;;;22.24;61.94;96447.53;6247398;23;20024;-78
2022/08/26 00:14:17;;;;;;;15.50;9.02;;;;;;;22.21;62.03;96444.34;6248567;23;20024;-77
2022/08/26 00:16:45;;;;;;;10.07;7.90;;;;;;;22.22;62.81;96447.81;6246314;22;20099;-78
2022/08/26 00:19:15;;;;;;;12.93;8.10;;;;;;;22.24;62.01;96442.22;6246480;23;20380;-78
2022/08/26 00:21:43;;;;;;;11.70;8.57;;;;;;;22.21;62.00;96446.19;6247141;23;20051;-77
2022/08/26 00:24:12;;;;;;;10.60;7.60;;;;;;;22.24;62.89;96444.88;6247667;23;20028;-78
2022/08/26 00:26:40;;;;;;;12.30;8.05;;;;;;;22.27;62.85;96444.38;6246681;22;20199;-77
2022/08/26 00:29:11;;;;;;;13.95;8.50;;;;;;;22.28;63.34;96443.31;6245900;23;20522;-78
2022/08/26 00:31:38;;;;;;;8.45;7.50;;;;;;;22.30;62.98;96439.38;6245539;23;20020;-78
2022/08/26 00:34:07;;;;;;;11.85;8.20;;;;;;;22.31;62.27;96440.94;6245716;23;20544;-78
2022/08/26 00:36:36;;;;;;;8.80;7.47;;;;;;;22.29;63.16;96448.38;6246059;22;20016;-77
2022/08/26 00:39:06;;;;;;;13.63;8.23;;;;;;;22.24;61.74;96439.56;6246120;23;20103;-78
2022/08/26 00:41:35;;;;;;;12.88;7.93;;;;;;;22.19;62.71;96445.63;6245916;23;20077;-78
2022/08/26 00:44:04;;;;;;;15.90;9.55;;;;;;;22.15;62.20;96444.56;6246367;23;20031;-78
2022/08/26 00:46:36;;;;;;;13.82;8.25;;;;;;;22.10;62.60;96442.69;6246191;22;20028;-78
2022/08/26 00:49:06;;;;;;;;;;;;;;;22.08;62.13;96447.44;6246462;23;20047;-78
2022/08/26 00:51:43;;;;;;;14.85;8.70;;;;;;;22.03;62.68;96442.13;6244687;23;19915;-78
2022/08/26 00:54:12;;;;;;;14.32;8.35;;;;;;;22.01;62.84;96445.03;6245750;23;20074;-78
2022/08/26 00:56:44;;;;;;;14.75;9.52;;;;;;;22.00;63.00;96440.78;6245618;22;20024;-78
2022/08/26 00:59:16;;;;;;;15.57;8.88;;;;;;;22.01;62.98;96441.56;6245178;23;20095;-77
2022/08/26 01:01:46;;;;;;;12.77;8.52;;;;;;;22.01;62.98;96444.25;6245687;23;20621;-78
2022/08/26 01:04:17;;;;;;;13.00;8.15;;;;;;;22.00;62.93;96443.44;6249510;23;20016;-78
2022/08/26 01:06:45;;;;;;;15.07;8.20;;;;;;;22.01;63.00;96446.91;6249451;22;20020;-77
2022/08/26 01:09:13;;;;;;;16.50;8.68;;;;;;;22.01;63.37;96444.25;6250032;23;20020;-77
2022/08/26 01:11:41;;;;;;;13.38;8.63;;;;;;;21.98;63.03;96442.09;6248781;23;20483;-77
2022/08/26 01:14:10;;;;;;;14.98;9.00;;;;;;;21.96;63.05;96441.56;6249386;23;20090;-77
2022/08/26 01:16:38;;;;;;;14.40;9.48;;;;;;;21.92;63.16;96437.81;6248591;22;20357;-78
2022/08/26 01:19:18;;;;;;;15.13;8.70;;;;;;;21.89;63.55;96441.81;6247236;23;20026;-78
2022/08/26 01:21:50;;;;;;;13.95;8.75;;;;;;;21.87;63.55;96443.13;6247031;23;20043;-78
2022/08/26 01:24:19;;;;;;;16.27;9.37;;;;;;;21.84;63.43;96440.97;6247289;23;20333;-78
2022/08/26 01:26:48;;;;;;;15.85;9.35;;;;;;;21.83;63.61;96442.03;6246556;22;20020;-78
2022/08/26 01:29:18;;;;;;;15.93;8.70;;;;;;;21.81;63.87;96436.97;6246620;23;20054;-77
2022/08/26 01:31:49;;;;;;;14.60;9.20;;;;;;;21.77;63.56;96447.28;6247666;23;20074;-80
2022/08/26 01:34:21;;;;;;;14.33;8.47;;;;;;;21.75;63.68;96438.78;6248190;23;20448;-76
2022/08/26 01:36:54;;;;;;;15.27;7.93;;;;;;;21.72;63.99;96434.00;6249081;22;20264;-78
2022/08/26 01:39:23;;;;;;;14.50;9.18;;;;;;;21.69;64.06;96442.50;6248985;23;20078;-78
2022/08/26 01:41:55;;;;;;;18.83;9.50;;;;;;;21.67;64.44;96436.63;6249735;23;20048;-77
2022/08/26 01:44:26;;;;;;;16.45;9.23;;;;;;;21.64;64.39;96441.66;6248752;23;20103;-77
2022/08/26 01:46:56;;;;;;;13.18;9.32;;;;;;;21.61;64.57;96440.31;6250091;22;20024;-77
2022/08/26 01:49:25;;;;;;;12.38;9.18;;;;;;;21.61;64.39;96437.66;6250986;23;20047;-78
2022/08/26 01:51:55;;;;;;;17.67;9.80;;;;;;;21.59;63.92;96439.75;6250788;23;20051;-78
2022/08/26 01:54:26;;;;;;;12.73;9.27;;;;;;;21.55;63.99;96439.47;6248893;23;20020;-78
2022/08/26 01:56:54;;;;;;;18.58;9.32;;;;;;;21.52;64.12;96439.97;6249219;22;20024;-78
2022/08/26 01:59:24;;;;;;;11.88;8.90;;;;;;;21.47;64.33;96441.78;6248325;23;20360;-78
2022/08/26 02:01:52;;;;;;;15.27;9.43;;;;;;;21.42;64.95;96434.59;6249666;23;20088;-78
2022/08/26 02:04:25;;;;;;;12.20;9.65;;;;;;;21.37;64.84;96435.34;6248821;23;20472;-78
2022/08/26 02:06:55;;;;;;;12.85;8.30;;;;;;;21.34;65.16;96438.50;6250386;22;20095;-78
2022/08/26 02:09:25;;;;;;;18.02;10.30;;;;;;;21.31;65.25;96439.00;6248983;23;20456;-78
2022/08/26 02:11:54;;;;;;;18.55;9.40;;;;;;;21.29;65.42;96446.41;6249086;23;20024;-78
2022/08/26 02:14:25;;;;;;;15.57;9.43;;;;;;;21.26;65.35;96438.97;6251232;23;20349;-78
2022/08/26 02:16:55;;;;;;;16.80;9.85;;;;;;;21.24;65.16;96441.06;6253381;22;20074;-78
2022/08/26 02:19:27;;;;;;;12.35;8.95;;;;;;;21.19;65.54;96439.19;6249692;23;20098;-77
2022/08/26 02:21:57;;;;;;;18.58;10.38;;;;;;;21.17;65.43;96437.84;6248464;23;20062;-77
2022/08/26 02:24:28;;;;;;;14.60;9.60;;;;;;;21.14;65.39;96438.34;6248741;23;20020;-78
2022/08/26 02:26:58;;;;;;;13.63;9.15;;;;;;;21.13;65.88;96436.75;6248746;22;20020;-78
2022/08/26 02:29:32;;;;;;;21.25;9.45;;;;;;;21.09;65.92;96439.09;6248043;23;20070;-78
2022/08/26 02:31:59;;;;;;;20.17;9.68;;;;;;;21.06;66.01;96439.59;6248695;23;20040;-78
2022/08/26 02:34:30;;;;;;;16.30;10.10;;;;;;;21.04;66.27;96432.97;6248483;23;20024;-78
2022/08/26 02:36:59;;;;;;;13.15;9.30;;;;;;;21.03;66.24;96431.34;6247848;22;20020;-78
2022/08/26 02:39:28;;;;;;;13.20;9.65;;;;;;;20.99;66.41;96423.91;6247453;23;20348;-77
2022/08/26 02:41:58;;;;;;;13.85;8.63;;;;;;;20.97;66.59;96423.34;6247902;23;20031;-78
2022/08/26 02:44:26;;;;;;;12.95;9.25;;;;;;;20.95;66.47;96436.06;6248956;23;20035;-78
2022/08/26 02:46:54;;;;;;;14.93;9.70;;;;;;;20.93;66.43;96430.22;6247391;22;20024;-78
2022/08/26 02:49:23;;;;;;;14.27;9.13;;;;;;;20.93;66.61;96432.06;6247720;23;20028;-78
2022/08/26 02:51:52;;;;;;;14.55;9.45;;;;;;;20.91;66.70;96428.88;6247405;23;20264;-78
2022/08/26 02:54:21;;;;;;;17.38;9.48;;;;;;;20.88;66.92;96422.22;6248817;23;20356;-78
2022/08/26 02:56:50;;;;;;;15.88;9.30;;;;;;;20.88;66.90;96427.53;6247855;22;20021;-78
2022/08/26 02:59:19;;;;;;;15.60;9.50;;;;;;;20.87;67.07;96422.47;6247115;23;20073;-78
2022/08/26 03:01:50;;;;;;;19.38;9.52;;;;;;;20.84;67.11;96420.28;6247124;23;20031;-78
2022/08/26 03:04:22;;;;;;;15.98;9.75;;;;;;;20.81;66.99;96408.34;6246772;23;20020;-78
2022/08/26 03:06:52;;;;;;;17.02;9.45;;;;;;;20.78;66.98;96414.16;6247921;22;20193;-78
2022/08/26 03:09:23;;;;;;;16.60;9.90;;;;;;;20.76;67.32;96416.25;6247374;23;20460;-77
2022/08/26 03:11:51;;;;;;;15.05;10.35;;;;;;;20.72;67.24;96415.97;6249103;23;20020;-78
2022/08/26 03:14:22;;;;;;;16.33;10.10;;;;;;;20.68;67.50;96422.00;6247617;23;20460;-78
2022/08/26 03:16:51;;;;;;;18.48;10.52;;;;;;;20.65;67.12;96417.22;6247944;22;20047;-77
2022/08/26 03:19:18;;;;;;;12.65;9.77;;;;;;;20.65;66.95;96414.56;6249239;23;20020;-78
2022/08/26 03:21:46;;;;;;;19.85;11.18;;;;;;;20.64;66.86;96418.25;6250937;23;20054;-78
2022/08/26 03:24:14;;;;;;;13.32;9.13;;;;;;;20.64;67.58;96418.25;6250746;23;20468;-78
2022/08/26 03:26:42;;;;;;;13.50;9.60;;;;;;;20.69;68.30;96418.31;6250528;22;20020;-77
2022/08/26 03:32:06;;;;;;;18.17;9.65;;;;;;;20.77;67.90;96413.38;6249566;23;20095;-77
2022/08/26 03:34:34;;;;;;;15.95;10.80;;;;;;;20.75;66.50;96406.69;6250693;23;20020;-77
2022/08/26 03:37:01;;;;;;;15.65;10.65;;;;;;;20.67;66.48;96399.22;6250176;22;20020;-77
2022/08/26 03:39:29;;;;;;;14.60;9.93;;;;;;;20.62;66.70;96412.41;6249342;23;20044;-78
2022/08/26 03:41:58;;;;;;;16.05;10.45;;;;;;;20.58;66.74;96417.44;6249562;23;20020;-78
2022/08/26 03:44:27;;;;;;;16.13;9.23;;;;;;;20.55;67.03;96412.56;6249476;23;20389;-78
2022/08/26 03:46:55;;;;;;;16.15;10.55;;;;;;;20.49;67.20;96409.09;6249061;22;20054;-78
2022/08/26 03:49:23;;;;;;;17.00;10.60;;;;;;;20.46;67.60;96406.91;6249072;23;20476;-77
2022/08/26 03:51:50;;;;;;;17.98;10.55;;;;;;;20.43;68.07;96407.44;6249903;23;20066;-77
2022/08/26 03:54:18;;;;;;;14.68;10.25;;;;;;;20.41;67.98;96411.38;6248655;23;20043;-78
2022/08/26 03:56:46;;;;;;;15.50;11.25;;;;;;;20.36;68.47;96406.84;6248421;22;20498;-78
2022/08/26 03:59:14;;;;;;;15.63;10.93;;;;;;;20.34;68.57;96408.94;6248544;23;20064;-77
2022/08/26 04:01:43;;;;;;;19.58;11.45;;;;;;;20.30;68.83;96410.47;6248552;23;20074;-78
2022/08/26 04:04:11;;;;;;;14.98;10.88;;;;;;;20.29;68.78;96411.50;6247719;23;20468;-77
2022/08/26 04:06:42;;;;;;;17.83;11.55;;;;;;;20.26;68.66;96406.72;6248589;22;20528;-78
2022/08/26 04:09:14;;;;;;;19.23;11.80;;;;;;;20.23;68.77;96415.97;6248087;23;20024;-77
2022/08/26 04:11:44;;;;;;;20.35;10.93;;;;;;;20.21;69.27;96411.97;6247564;23;20388;-78
2022/08/26 04:14:17;;;;;;;16.92;11.13;;;;;;;20.20;69.20;96413.00;6248262;23;20099;-78
2022/08/26 04:16:48;;;;;;;14.23;10.32;;;;;;;20.20;69.66;96415.66;6248199;22;20024;-77
2022/08/26 04:19:19;;;;;;;20.58;10.88;;;;;;;20.19;69.45;96416.69;6248626;23;20020;-77
2022/08/26 04:21:49;;;;;;;20.15;11.23;;;;;;;20.19;69.40;96419.34;6248739;23;20025;-78
2022/08/26 04:24:17;;;;;;;19.65;10.68;;;;;;;20.15;69.35;96414.53;6248689;23;20058;-77
2022/08/26 04:26:45;;;;;;;16.77;11.05;;;;;;;20.14;69.57;96414.81;6247672;22;20027;-77
2022/08/26 04:29:17;;;;;;;19.55;11.40;;;;;;;20.11;69.64;96421.38;6247388;23;20032;-77
2022/08/26 04:31:45;;;;;;;17.23;9.67;;;;;;;20.09;69.46;96410.22;6248113;23;20020;-78
2022/08/26 04:34:16;;;;;;;20.42;9.68;;;;;;;20.11;69.94;96413.41;6249063;23;20615;-78
2022/08/26 04:36:44;;;;;;;16.58;9.73;;;;;;;20.13;69.69;96413.97;6247461;22;20024;-77
2022/08/26 04:39:15;;;;;;;18.52;10.85;;;;;;;20.13;69.47;96413.97;6247738;23;20062;-77
2022/08/26 04:41:45;;;;;;;14.32;10.57;;;;;;;20.12;69.44;96415.03;6247638;23;20070;-78
2022/08/26 04:44:13;;;;;;;11.98;9.50;;;;;;;20.15;70.43;96414.53;6247772;23;20024;-78
2022/08/26 04:46:41;;;;;;;18.08;10.40;;;;;;;20.16;69.53;96412.72;6247039;22;20074;-77
2022/08/26 04:49:11;;;;;;;19.13;12.10;;;;;;;20.15;69.31;96417.19;6244818;22;20417;-83
2022/08/26 04:51:40;;;;;;;14.50;10.18;;;;;;;20.12;69.44;96417.69;6248386;23;20058;-79
2022/08/26 04:54:10;;;;;;;17.75;11.95;;;;;;;20.08;69.55;96415.78;6248907;23;20024;-81
2022/08/26 04:56:40;;;;;;;16.15;10.85;;;;;;;20.05;69.84;96421.56;6249052;23;20024;-80
2022/08/26 04:59:10;;;;;;;14.93;9.50;;;;;;;20.08;70.20;96413.13;6249704;22;20028;-79
2022/08/26 05:01:46;;;;;;;17.45;10.38;;;;;;;20.13;70.18;96423.78;6248137;23;20042;-77
2022/08/26 05:04:14;;;;;;;19.50;11.60;;;;;;;20.16;69.85;96412.72;6248592;23;20356;-78
2022/08/26 05:06:47;;;;;;;24.15;11.55;;;;;;;20.16;69.42;96420.66;6247682;23;20024;-80
2022/08/26 05:09:14;;;;;;;20.95;11.90;;;;;;;20.13;69.64;96423.78;6248089;22;20074;-79
2022/08/26 05:11:42;;;;;;;20.02;11.77;;;;;;;20.08;69.59;96418.44;6247989;23;20020;-77
2022/08/26 05:14:09;;;;;;;20.45;12.60;;;;;;;20.04;69.83;96426.06;6247836;23;20460;-77
2022/08/26 05:16:38;;;;;;;20.40;11.70;;;;;;;20.02;70.08;96422.84;6248271;23;20028;-82
2022/08/26 05:19:07;;;;;;;20.50;12.38;;;;;;;20.01;70.27;96423.91;6253581;22;20047;-78
2022/08/26 05:21:35;;;;;;;20.85;13.50;;;;;;;20.01;70.38;96431.84;6259710;23;20020;-80
2022/08/26 05:24:06;;;;;;;18.85;12.57;;;;;;;20.03;70.57;96432.41;6257740;23;20031;-79
2022/08/26 05:26:34;;;;;;;18.65;11.45;;;;;;;20.04;70.34;96426.06;6248651;23;20051;-80
2022/08/26 05:29:02;;;;;;;20.30;11.80;;;;;;;20.03;70.27;96424.47;6248227;22;20028;-79
2022/08/26 05:31:32;;;;;;;17.80;11.45;;;;;;;20.03;70.51;96426.28;6248701;23;20024;-77
2022/08/26 05:34:01;;;;;;;23.05;12.52;;;;;;;20.02;70.82;96425.50;6247971;23;20024;-79
2022/08/26 05:36:33;;;;;;;23.02;11.85;;;;;;;20.06;70.92;96418.66;6248976;23;20020;-79
2022/08/26 05:39:02;;;;;;;14.55;11.48;;;;;;;20.13;70.92;96434.38;6247800;22;20487;-78
2022/08/26 05:41:33;;;;;;;19.67;12.52;;;;;;;20.21;71.59;96436.59;6247632;23;20016;-80
2022/08/26 05:44:05;;;;;;;19.48;12.20;;;;;;;20.28;70.78;96439.06;6248216;23;20501;-79
2022/08/26 05:46:34;;;;;;;20.05;12.95;;;;;;;20.34;70.54;96436.22;6247507;23;20076;-78
2022/08/26 05:49:02;;;;;;;20.98;11.18;;;;;;;20.42;71.02;96434.97;6247540;22;20020;-78
2022/08/26 05:51:30;;;;;;;14.90;11.18;;;;;;;20.50;71.57;96442.47;6246960;23;20020;-79
2022/08/26 05:53:59;;;;;;;16.48;10.77;;;;;;;20.58;70.92;96435.97;6247219;23;20028;-78
2022/08/26 05:56:27;;;;;;;15.48;11.02;;;;;;;20.65;70.86;96446.38;6247751;23;20639;-80
2022/08/26 05:58:56;;;;;;;15.27;10.30;;;;;;;20.71;70.87;96437.44;6247767;22;20024;-78
2022/08/26 06:01:26;;;;;;;13.48;10.45;;;;;;;20.79;70.65;96442.25;6247896;23;20329;-75
2022/08/26 06:04:00;;;;;;;17.52;10.48;;;;;;;20.87;69.50;96439.16;6247374;23;20028;-76
2022/08/26 06:06:30;;;;;;;16.15;10.23;;;;;;;20.93;68.98;96440.03;6247788;23;20023;-76
2022/08/26 06:08:59;;;;;;;21.30;12.77;;;;;;;20.98;69.05;96440.84;6250061;22;20020;-78
2022/08/26 06:11:29;;;;;;;18.85;12.75;;;;;;;21.04;68.93;96436.41;6250200;23;20455;-78
2022/08/26 06:14:01;;;;;;;21.50;13.13;;;;;;;21.13;69.64;96448.16;6250896;23;20102;-77
2022/08/26 06:16:33;;;;;;;23.30;14.52;;;;;;;21.19;68.94;96441.84;6252672;23;20024;-79
2022/08/26 06:19:02;;;;;;;17.23;13.80;;;;;;;21.26;68.92;96441.63;6252194;22;20033;-78
2022/08/26 06:21:39;;;;;;;17.80;12.10;;;;;;;21.35;68.73;96445.41;6251359;23;20491;-77
2022/08/26 06:27:00;;;;;;;17.65;12.15;;;;;;;21.48;68.81;96451.38;6250287;23;20411;-79
2022/08/26 06:29:32;;;;;;;19.80;13.52;;;;;;;21.50;68.26;96451.91;6250054;22;20024;-79
2022/08/26 06:32:01;;;;;;;19.27;13.27;;;;;;;21.51;68.32;96454.28;6249423;23;20570;-78
2022/08/26 06:34:29;;;;;;;21.23;13.93;;;;;;;21.54;68.49;96455.66;6248894;23;20031;-78
2022/08/26 06:37:00;;;;;;;20.20;13.45;;;;;;;21.56;68.69;96450.91;6248630;23;20024;-78
2022/08/26 06:39:29;;;;;;;18.33;14.13;;;;;;;21.63;68.32;96456.78;6250763;22;20376;-79
2022/08/26 06:41:57;;;;;;;20.25;12.77;;;;;;;21.70;68.28;96452.03;6249302;23;20073;-78
2022/08/26 06:44:25;;;;;;;15.75;12.27;;;;;;;21.78;68.54;96453.44;6248948;23;20024;-78
2022/08/26 06:46:54;;;;;;;19.38;12.23;;;;;;;21.84;69.11;96452.38;6248996;23;20062;-77
2022/08/26 06:49:23;;;;;;;18.67;12.05;;;;;;;21.92;68.60;96456.41;6249010;22;20020;-78
2022/08/26 06:51:55;;;;;;;14.52;11.48;;;;;;;21.96;68.16;96460.94;6250559;23;20519;-78
2022/08/26 06:54:22;;;;;;;16.95;11.57;;;;;;;22.04;67.77;96456.19;6249590;23;20530;-77
2022/08/26 06:56:50;;;;;;;16.90;11.10;;;;;;;22.11;67.50;96462.88;6250324;23;20081;-77
2022/08/26 06:59:17;;;;;;;15.95;11.20;;;;;;;22.17;67.49;96461.03;6250465;22;20078;-79
2022/08/26 07:01:46;;;;;;;16.95;12.18;;;;;;;22.23;67.18;96469.88;6249821;23;20016;-78
2022/08/26 07:04:17;;;;;;;15.40;11.20;;;;;;;22.29;66.89;96471.50;6251429;23;20024;-77
2022/08/26 07:06:50;;;;;;;18.13;11.90;;;;;;;22.35;66.25;96467.81;6250505;23;20028;-77
2022/08/26 07:09:21;;;;;;;16.95;11.43;;;;;;;22.43;66.46;96472.59;6251244;22;20027;-78
2022/08/26 07:11:50;;;;;;;15.88;11.00;;;;;;;22.53;66.37;96469.19;6251958;23;20538;-78
2022/08/26 07:14:17;;;;;;;15.93;10.75;;;;;;;22.59;65.82;96468.94;6251442;23;20020;-78
2022/08/26 07:16:47;;;;;;;17.73;11.43;;;;;;;22.67;64.81;96474.81;6249901;23;20020;-79
2022/08/26 07:19:17;;;;;;;16.52;11.18;;;;;;;22.79;64.73;96473.50;6249321;22;20468;-77
2022/08/26 07:21:58;;;;;;;;;;;;;;;22.98;64.98;96473.00;6250037;23;20062;-76
2022/08/26 07:24:25;;;;;;;18.63;10.65;;;;;;;23.13;65.08;96478.38;6251286;23;19962;-78
2022/08/26 07:26:59;;;;;;;16.83;10.50;;;;;;;23.28;64.29;96474.91;6252430;23;20468;-77
2022/08/26 07:29:27;;;;;;;15.50;10.82;;;;;;;23.43;63.84;96461.63;6252492;22;20039;-76
2022/08/26 07:31:55;;;;;;;16.80;10.65;;;;;;;23.58;63.94;96468.78;6252165;23;20082;-76
2022/08/26 07:34:24;;;;;;;16.40;9.48;;;;;;;23.70;63.87;96470.38;6251573;23;20079;-77
2022/08/26 07:36:53;;;;;;;15.93;9.65;;;;;;;23.82;63.96;96465.59;6258282;23;20024;-79
2022/08/26 07:39:22;;;;;;;17.52;10.18;;;;;;;23.95;63.34;96473.03;6257737;22;20044;-77
2022/08/26 07:41:50;;;;;;;16.40;9.90;;;;;;;24.11;63.19;96478.31;6258456;23;20020;-77
2022/08/26 07:44:19;;;;;;;18.95;9.70;;;;;;;24.30;62.47;96470.53;6258440;23;20468;-78
2022/08/26 07:46:46;;;;;;;13.60;10.43;;;;;;;24.45;62.33;96471.25;6256173;23;20403;-78
2022/08/26 07:49:20;;;;;;;13.00;9.45;;;;;;;24.57;61.53;96476.28;6256255;22;20076;-78
2022/08/26 07:51:49;;;;;;;17.80;9.30;;;;;;;24.67;61.50;96473.56;6257205;23;20078;-79
2022/08/26 07:54:17;;;;;;;16.88;8.98;;;;;;;24.78;61.46;96474.31;6254763;23;20024;-78
2022/08/26 07:56:45;;;;;;;14.73;9.32;;;;;;;24.90;60.92;96473.97;6254238;23;20086;-80
2022/08/26 07:59:12;;;;;;;15.23;9.30;;;;;;;24.99;60.90;96472.31;6253062;22;20032;-79
2022/08/26 08:01:42;;;;;;;13.10;8.50;;;;;;;25.08;60.19;96475.22;6251901;23;20476;-81
2022/08/26 08:04:12;;;;;;;14.13;8.73;;;;;;;25.17;60.33;96470.06;6251012;23;20024;-83
2022/08/26 08:06:40;;;;;;;13.88;8.73;;;;;;;25.25;59.89;96467.63;6252274;23;20043;-80
2022/08/26 08:09:13;;;;;;;12.27;7.85;;;;;;;25.39;59.50;96467.00;6251061;22;20515;-79
2022/08/26 08:11:43;;;;;;;;;;;;;;;25.49;59.29;96467.69;6254986;23;20392;-79
2022/08/26 08:14:11;;;;;;;12.88;7.95;;;;;;;25.56;58.81;96467.38;6252575;23;20389;-79
2022/08/26 08:16:39;;;;;;;17.52;8.55;;;;;;;25.63;58.09;96467.03;6253144;23;20016;-81
2022/08/26 08:19:13;;;;;;;12.02;8.02;;;;;;;25.72;58.05;96473.38;6251963;22;20539;-79
2022/08/26 08:21:41;;;;;;;19.65;7.25;;;;;;;25.80;57.09;96464.75;6251240;23;20027;-81
2022/08/26 08:24:10;;;;;;;12.40;7.68;;;;;;;26.01;56.44;96467.22;6257542;23;20051;-84
2022/08/26 08:26:39;;;;;;;11.85;6.75;;;;;;;26.23;54.54;96475.53;6256090;23;20016;-80
2022/08/26 08:29:08;;;;;;;15.85;7.53;;;;;;;26.42;54.81;96474.78;6256568;22;20020;-77
2022/08/26 08:31:36;;;;;;;16.70;7.50;;;;;;;26.53;55.05;96468.22;6255910;23;20024;-78
2022/08/26 08:34:25;;;;;;;13.70;8.32;;;;;;;26.63;54.43;96465.44;6256503;23;20360;-82
2022/08/26 08:36:53;;;;;;;13.18;7.35;;;;;;;26.75;53.99;96465.00;6259775;23;20028;-80
2022/08/26 08:39:21;;;;;;;14.23;8.65;;;;;;;26.93;53.89;96471.44;6260222;22;20018;-82
2022/08/26 08:42:04;;;;;;;23.88;8.80;;;;;;;27.21;53.27;96468.91;6259920;23;20051;-80
2022/08/26 08:44:36;;;;;;;18.00;8.38;;;;;;;27.54;52.96;96473.19;6259626;23;20476;-85
2022/08/26 08:47:14;;;;;;;17.65;9.05;;;;;;;27.87;52.73;96462.44;6259351;23;20024;-82
2022/08/26 08:49:44;;;;;;;15.40;8.70;;;;;;;28.20;51.13;96461.56;6259975;22;20086;-82
2022/08/26 08:52:27;;;;;;;16.30;8.52;;;;;;;28.42;50.04;96463.53;6260760;23;20020;-79
2022/08/26 08:54:56;;;;;;;16.80;7.80;;;;;;;28.43;49.30;96457.09;6260269;23;20063;-82
2022/08/26 08:57:31;;;;;;;14.77;8.00;;;;;;;28.33;48.84;96458.88;6260214;23;20024;-84
2022/08/26 09:00:06;;;;;;;20.65;8.32;;;;;;;28.24;48.96;96455.31;6258645;22;20028;-85
2022/08/26 09:02:42;;;;;;;17.35;8.55;;;;;;;28.16;49.54;96456.00;6259352;23;20529;-81
2022/08/26 09:05:20;;;;;;;17.75;9.05;;;;;;;28.02;49.94;96457.91;6256673;23;20071;-79
2022/08/26 09:07:53;;;;;;;20.77;9.18;;;;;;;27.89;49.58;96454.91;6256887;23;20027;-81
2022/08/26 09:10:32;;;;;;;17.77;7.78;;;;;;;27.78;49.99;96458.06;6257506;23;20472;-78
2022/08/26 09:13:05;;;;;;;12.65;7.50;;;;;;;27.68;50.28;96449.13;6258569;23;20070;-81
2022/08/26 09:15:42;;;;;;;15.88;7.75;;;;;;;27.59;50.55;96445.50;6258484;23;20028;-80
2022/08/26 09:18:23;;;;;;;15.00;7.70;;;;;;;27.50;50.33;96453.44;6258737;22;20024;-81
2022/08/26 09:20:56;;;;;;;14.65;7.38;;;;;;;27.40;50.73;96448.25;6257973;23;20020;-80
2022/08/26 09:23:24;;;;;;;17.70;7.60;;;;;;;27.29;50.68;96442.28;6259545;23;20043;-86
2022/08/26 09:25:54;;;;;;;13.90;7.22;;;;;;;27.22;50.87;96435.69;6257917;23;20486;-84
2022/08/26 09:28:26;;;;;;;13.73;7.90;;;;;;;27.13;51.57;96441.69;6257427;22;20058;-82
2022/08/26 09:31:09;;;;;;;12.52;7.05;;;;;;;27.08;52.43;96451.69;6256326;23;20016;-80
2022/08/26 09:33:38;;;;;;;16.98;8.75;;;;;;;27.02;53.04;96463.53;6257144;23;20020;-84
2022/08/26 09:36:25;;;;;;;18.10;7.60;;;;;;;26.79;52.21;96454.53;6256833;23;20024;-83
2022/08/26 09:38:53;;;;;;;19.63;7.15;;;;;;;26.42;53.56;96456.84;6264459;22;20024;-82
2022/08/26 09:41:30;;;;;;;15.75;8.23;;;;;;;26.10;54.94;96460.16;6263751;23;20016;-84
2022/08/26 09:44:19;;;;;;;24.42;8.05;;;;;;;25.81;57.25;96471.66;6260309;23;20017;-82
2022/08/26 09:46:54;;;;;;;25.92;7.75;;;;;;;25.52;57.51;96482.38;6258738;23;20452;-81
2022/08/26 09:49:29;;;;;;;18.60;7.22;;;;;;;25.16;58.06;96479.13;6260188;22;20032;-83
2022/08/26 09:52:06;;;;;;;13.05;5.22;;;;;;;24.65;57.42;96466.91;6261115;23;20020;-82
2022/08/26 09:54:35;;;;;;;;;;;;;;;24.16;58.41;96462.28;6261460;23;20024;-84
2022/08/26 09:57:21;;;;;;;18.92;7.88;;;;;;;23.68;60.46;96454.69;6259557;23;20337;-83
2022/08/26 09:59:50;;;;;;;16.10;6.32;;;;;;;23.38;60.21;96450.97;6259562;22;20082;-81
2022/08/26 10:02:36;;;;;;;17.65;6.47;;;;;;;23.23;61.88;96443.00;6259746;23;20020;-83
2022/08/26 10:05:09;;;;;;;11.77;6.60;;;;;;;23.13;63.37;96448.31;6259264;23;20020;-82
2022/08/26 10:07:42;;;;;;;12.15;4.75;;;;;;;22.99;62.84;96450.66;6259123;23;20020;-82
2022/08/26 10:10:14;;;;;;;11.60;4.88;;;;;;;22.82;62.81;96450.91;6258596;22;20024;-80
2022/08/26 10:12:49;;;;;;;11.00;6.00;;;;;;;22.69;63.96;96432.81;6259082;23;20020;-80
2022/08/26 10:15:19;;;;;;;10.05;4.88;;;;;;;22.64;64.57;96428.28;6258795;23;20542;-80
2022/08/26 10:17:55;;;;;;;11.30;4.35;;;;;;;22.59;64.82;96422.97;6257416;23;20021;-82
2022/08/26 10:20:26;;;;;;;11.18;4.65;;;;;;;22.52;64.28;96415.25;6258561;23;20027;-81
2022/08/26 10:22:59;;;;;;;9.23;4.50;;;;;;;22.47;65.13;96407.22;6257263;23;20020;-82
2022/08/26 10:25:33;;;;;;;9.77;5.13;;;;;;;22.45;66.89;96397.94;6256993;23;20020;-85
2022/08/26 10:28:10;;;;;;;11.68;5.38;;;;;;;22.46;67.74;96403.00;6257415;22;20054;-83
2022/08/26 10:30:45;;;;;;;7.75;4.82;;;;;;;22.45;67.92;96408.56;6256468;23;20030;-82
2022/08/26 10:33:14;;;;;;;11.60;5.45;;;;;;;22.45;68.57;96411.22;6256986;23;20035;-82
2022/08/26 10:35:50;;;;;;;11.68;5.97;;;;;;;22.48;69.35;96403.53;6261946;23;20077;-85
2022/08/26 10:38:27;;;;;;;9.70;5.85;;;;;;;22.55;69.52;96401.41;6265017;22;20027;-82
2022/08/26 10:41:02;;;;;;;22.38;9.90;;;;;;;22.65;72.81;96402.47;6263550;23;20023;-84
2022/08/26 10:43:41;;;;;;;10.60;6.40;;;;;;;22.71;70.84;96404.09;6263680;23;20339;-84
2022/08/26 10:46:15;;;;;;;16.05;8.18;;;;;;;22.80;74.56;96410.47;6261882;23;20024;-85
2022/08/26 10:48:49;;;;;;;15.63;6.95;;;;;;;22.82;70.99;96403.03;6233783;23;20031;-82
2022/08/26 10:51:23;;;;;;;10.15;5.55;;;;;;;22.86;70.41;96400.66;6260852;23;20024;-81
2022/08/26 10:53:56;;;;;;;12.77;5.85;;;;;;;22.91;71.08;96401.44;6261841;23;20483;-79
2022/08/26 10:56:40;;;;;;;9.32;6.28;;;;;;;23.02;75.65;96399.63;6256352;23;20038;-76
2022/08/26 10:59:20;;;;;;;17.25;8.80;;;;;;;23.15;76.83;96396.41;6259678;22;20034;-77
2022/08/26 11:01:54;;;;;;;9.90;5.95;;;;;;;23.19;72.62;96391.38;6261013;23;20012;-80
2022/08/26 11:04:40;;;;;;;11.32;6.20;;;;;;;23.23;71.31;96392.44;6260429;23;20020;-83
2022/08/26 11:20:54;;;;;;;12.73;7.07;;;;;;;24.06;69.38;96380.53;6247162;22;20486;-78
2022/08/26 12:21:12;;;;;;;16.17;5.50;;;;;;;25.51;59.45;96341.88;6296236;22;20031;-81
2022/08/26 12:23:44;;;;;;;13.07;6.10;;;;;;;25.53;59.95;96341.59;6248640;23;20395;-76
2022/08/26 12:26:21;;;;;;;9.60;5.45;;;;;;;25.53;61.46;96333.59;6247249;22;20020;-76
2022/08/26 12:28:53;;;;;;;10.55;5.72;;;;;;;25.51;60.11;96330.41;6250745;23;20020;-77
2022/08/26 12:31:24;;;;;;;14.35;6.18;;;;;;;25.47;60.34;96325.66;6245756;23;20089;-76
2022/08/26 12:33:53;;;;;;;10.15;6.57;;;;;;;25.46;61.32;96324.03;6246505;23;20027;-77
2022/08/26 12:36:26;;;;;;;12.07;7.18;;;;;;;25.49;67.32;96318.16;6247165;22;20024;-76
2022/08/26 12:38:56;;;;;;;11.85;6.65;;;;;;;25.52;67.72;96326.66;6248321;23;20059;-74
2022/08/26 12:41:42;;;;;;;15.82;7.55;;;;;;;25.51;66.29;96335.75;6245164;23;20024;-78
2022/08/26 12:44:31;;;;;;;10.18;6.85;;;;;;;25.46;62.94;96337.41;6246199;23;20105;-77
2022/08/26 12:47:08;;;;;;;10.68;6.68;;;;;;;25.44;62.04;96344.09;6245266;22;20024;-77
2022/08/26 12:49:37;;;;;;;10.40;5.88;;;;;;;25.44;60.58;96347.56;6245795;23;20024;-75
2022/08/26 12:52:05;;;;;;;11.40;6.28;;;;;;;25.43;61.55;96332.63;6246596;23;20091;-78
2022/08/26 12:57:27;;;;;;;12.82;6.15;;;;;;;25.46;63.22;96300.00;6252237;22;20030;-78
2022/08/26 13:00:23;;;;;;;14.30;5.53;;;;;;;25.49;62.20;96302.13;6245842;23;20027;-75
2022/08/26 13:02:58;;;;;;;14.85;6.38;;;;;;;25.53;62.49;96309.56;6253673;23;20083;-78